sensor_id;sensor_type;location;lat;lon;timestamp;P1;durP1;ratioP1;P2;durP2;ratioP2
12852;SDS011;6495;51.808;7.478;2023-04-04T00:01:43;3.70;;;1.50;;
12852;SDS011;6495;51.808;7.478;2023-04-04T00:04:32;1.67;;;1.30;;
12852;SDS011;6495;51.808;7.478;2023-04-04T00:07:21;3.87;;;1.37;;
12852;SDS011;6495;51.808;7.478;2023-04-04T00:10:10;2.53;;;1.13;;
12852;SDS011;6495;51.808;7.478;2023-04-04T00:12:59;5.47;;;1.67;;
12852;SDS011;6495;51.808;7.478;2023-04-04T00:15:48;6.77;;;1.50;;
12852;SDS011;6495;51.808;7.478;2023-04-04T00:18:37;2.73;;;1.60;;
12852;SDS011;6495;51.808;7.478;2023-04-04T00:21:25;1.40;;;1.30;;
12852;SDS011;6495;51.808;7.478;2023-04-04T00:24:15;2.90;;;1.27;;
12852;SDS011;6495;51.808;7.478;2023-04-04T00:27:05;3.13;;;1.40;;
12852;SDS011;6495;51.808;7.478;2023-04-04T00:29:54;2.77;;;1.27;;
12852;SDS011;6495;51.808;7.478;2023-04-04T00:32:42;3.80;;;1.40;;
12852;SDS011;6495;51.808;7.478;2023-04-04T00:35:31;3.23;;;1.50;;
12852;SDS011;6495;51.808;7.478;2023-04-04T00:38:20;2.07;;;1.10;;
12852;SDS011;6495;51.808;7.478;2023-04-04T00:41:08;1.73;;;1.20;;
12852;SDS011;6495;51.808;7.478;2023-04-04T00:43:59;2.97;;;1.40;;
12852;SDS011;6495;51.808;7.478;2023-04-04T00:46:48;5.20;;;1.50;;
12852;SDS011;6495;51.808;7.478;2023-04-04T00:49:38;2.93;;;1.27;;
12852;SDS011;6495;51.808;7.478;2023-04-04T00:52:26;2.80;;;1.70;;
12852;SDS011;6495;51.808;7.478;2023-04-04T00:55:15;2.00;;;1.60;;
12852;SDS011;6495;51.808;7.478;2023-04-04T00:58:04;1.30;;;1.10;;
12852;SDS011;6495;51.808;7.478;2023-04-04T01:00:56;3.40;;;1.90;;
12852;SDS011;6495;51.808;7.478;2023-04-04T01:03:46;1.50;;;1.40;;
12852;SDS011;6495;51.808;7.478;2023-04-04T01:06:34;2.17;;;1.40;;
12852;SDS011;6495;51.808;7.478;2023-04-04T01:09:23;1.83;;;1.30;;
12852;SDS011;6495;51.808;7.478;2023-04-04T01:12:12;4.70;;;1.63;;
12852;SDS011;6495;51.808;7.478;2023-04-04T01:15:01;1.40;;;1.23;;
12852;SDS011;6495;51.808;7.478;2023-04-04T01:17:54;4.33;;;1.80;;
12852;SDS011;6495;51.808;7.478;2023-04-04T01:20:49;2.70;;;1.43;;
12852;SDS011;6495;51.808;7.478;2023-04-04T01:23:46;3.37;;;2.03;;
12852;SDS011;6495;51.808;7.478;2023-04-04T01:27:06;4.00;;;1.80;;
12852;SDS011;6495;51.808;7.478;2023-04-04T01:30:01;2.47;;;1.50;;
12852;SDS011;6495;51.808;7.478;2023-04-04T01:32:52;6.80;;;2.10;;
12852;SDS011;6495;51.808;7.478;2023-04-04T01:35:49;1.70;;;1.33;;
12852;SDS011;6495;51.808;7.478;2023-04-04T01:38:51;2.33;;;1.60;;
12852;SDS011;6495;51.808;7.478;2023-04-04T01:41:46;3.10;;;1.50;;
12852;SDS011;6495;51.808;7.478;2023-04-04T01:44:37;3.10;;;1.93;;
12852;SDS011;6495;51.808;7.478;2023-04-04T01:47:25;4.13;;;1.50;;
12852;SDS011;6495;51.808;7.478;2023-04-04T01:50:15;1.50;;;1.30;;
12852;SDS011;6495;51.808;7.478;2023-04-04T01:53:03;2.23;;;1.60;;
12852;SDS011;6495;51.808;7.478;2023-04-04T01:55:52;2.23;;;1.63;;
12852;SDS011;6495;51.808;7.478;2023-04-04T01:58:41;2.33;;;1.47;;
12852;SDS011;6495;51.808;7.478;2023-04-04T02:01:31;2.23;;;1.40;;
12852;SDS011;6495;51.808;7.478;2023-04-04T02:04:20;3.33;;;2.00;;
12852;SDS011;6495;51.808;7.478;2023-04-04T02:07:09;2.37;;;1.63;;
12852;SDS011;6495;51.808;7.478;2023-04-04T02:09:58;3.23;;;1.67;;
12852;SDS011;6495;51.808;7.478;2023-04-04T02:12:47;2.03;;;1.47;;
12852;SDS011;6495;51.808;7.478;2023-04-04T02:15:35;4.53;;;1.47;;
12852;SDS011;6495;51.808;7.478;2023-04-04T02:18:26;2.30;;;1.50;;
12852;SDS011;6495;51.808;7.478;2023-04-04T02:21:14;6.50;;;1.87;;
12852;SDS011;6495;51.808;7.478;2023-04-04T02:24:03;6.03;;;1.57;;
12852;SDS011;6495;51.808;7.478;2023-04-04T02:26:53;1.93;;;1.60;;
12852;SDS011;6495;51.808;7.478;2023-04-04T02:29:41;2.67;;;1.60;;
12852;SDS011;6495;51.808;7.478;2023-04-04T02:32:30;3.73;;;1.50;;
12852;SDS011;6495;51.808;7.478;2023-04-04T02:35:20;2.47;;;1.70;;
12852;SDS011;6495;51.808;7.478;2023-04-04T02:38:09;1.93;;;1.53;;
12852;SDS011;6495;51.808;7.478;2023-04-04T02:41:02;1.50;;;1.40;;
12852;SDS011;6495;51.808;7.478;2023-04-04T02:43:51;2.67;;;1.63;;
12852;SDS011;6495;51.808;7.478;2023-04-04T02:46:40;1.33;;;1.23;;
12852;SDS011;6495;51.808;7.478;2023-04-04T02:49:33;3.47;;;1.43;;
12852;SDS011;6495;51.808;7.478;2023-04-04T02:52:23;4.73;;;1.60;;
12852;SDS011;6495;51.808;7.478;2023-04-04T02:55:12;3.03;;;1.30;;
12852;SDS011;6495;51.808;7.478;2023-04-04T02:58:02;4.07;;;1.60;;
12852;SDS011;6495;51.808;7.478;2023-04-04T03:00:54;3.40;;;1.50;;
12852;SDS011;6495;51.808;7.478;2023-04-04T03:03:47;2.07;;;1.50;;
12852;SDS011;6495;51.808;7.478;2023-04-04T03:06:36;1.40;;;1.30;;
12852;SDS011;6495;51.808;7.478;2023-04-04T03:09:27;2.70;;;1.40;;
12852;SDS011;6495;51.808;7.478;2023-04-04T03:12:18;1.93;;;1.37;;
12852;SDS011;6495;51.808;7.478;2023-04-04T03:15:09;3.60;;;1.67;;
12852;SDS011;6495;51.808;7.478;2023-04-04T03:17:58;3.87;;;2.03;;
12852;SDS011;6495;51.808;7.478;2023-04-04T03:20:49;1.90;;;1.27;;
12852;SDS011;6495;51.808;7.478;2023-04-04T03:23:37;1.40;;;1.03;;
12852;SDS011;6495;51.808;7.478;2023-04-04T03:26:27;1.67;;;1.57;;
12852;SDS011;6495;51.808;7.478;2023-04-04T03:29:16;1.60;;;1.50;;
12852;SDS011;6495;51.808;7.478;2023-04-04T03:32:05;2.77;;;1.30;;
12852;SDS011;6495;51.808;7.478;2023-04-04T03:34:53;5.43;;;1.60;;
12852;SDS011;6495;51.808;7.478;2023-04-04T03:37:42;6.47;;;2.00;;
12852;SDS011;6495;51.808;7.478;2023-04-04T03:40:30;3.07;;;1.60;;
12852;SDS011;6495;51.808;7.478;2023-04-04T03:43:25;1.47;;;1.23;;
12852;SDS011;6495;51.808;7.478;2023-04-04T03:46:13;2.07;;;1.70;;
12852;SDS011;6495;51.808;7.478;2023-04-04T03:49:03;3.30;;;1.50;;
12852;SDS011;6495;51.808;7.478;2023-04-04T03:51:52;1.93;;;1.53;;
12852;SDS011;6495;51.808;7.478;2023-04-04T03:54:41;1.77;;;1.53;;
12852;SDS011;6495;51.808;7.478;2023-04-04T03:57:30;2.43;;;1.30;;
12852;SDS011;6495;51.808;7.478;2023-04-04T04:00:21;2.33;;;1.40;;
12852;SDS011;6495;51.808;7.478;2023-04-04T04:03:10;4.17;;;1.67;;
12852;SDS011;6495;51.808;7.478;2023-04-04T04:06:01;3.57;;;1.43;;
12852;SDS011;6495;51.808;7.478;2023-04-04T04:08:51;1.80;;;1.33;;
12852;SDS011;6495;51.808;7.478;2023-04-04T04:11:41;1.83;;;1.53;;
12852;SDS011;6495;51.808;7.478;2023-04-04T04:14:30;1.47;;;1.37;;
12852;SDS011;6495;51.808;7.478;2023-04-04T04:17:22;3.07;;;1.70;;
12852;SDS011;6495;51.808;7.478;2023-04-04T04:20:12;2.67;;;1.47;;
12852;SDS011;6495;51.808;7.478;2023-04-04T04:23:05;2.00;;;1.57;;
12852;SDS011;6495;51.808;7.478;2023-04-04T04:25:54;1.10;;;1.00;;
12852;SDS011;6495;51.808;7.478;2023-04-04T04:28:44;2.30;;;1.57;;
12852;SDS011;6495;51.808;7.478;2023-04-04T04:31:37;3.77;;;1.80;;
12852;SDS011;6495;51.808;7.478;2023-04-04T04:34:27;5.07;;;1.77;;
12852;SDS011;6495;51.808;7.478;2023-04-04T04:37:18;3.10;;;1.60;;
12852;SDS011;6495;51.808;7.478;2023-04-04T04:40:11;1.70;;;1.40;;
12852;SDS011;6495;51.808;7.478;2023-04-04T04:43:02;2.00;;;1.50;;
12852;SDS011;6495;51.808;7.478;2023-04-04T04:45:51;3.97;;;2.20;;
12852;SDS011;6495;51.808;7.478;2023-04-04T04:48:40;2.53;;;1.60;;
12852;SDS011;6495;51.808;7.478;2023-04-04T04:51:31;2.77;;;1.63;;
12852;SDS011;6495;51.808;7.478;2023-04-04T04:54:19;3.47;;;1.40;;
12852;SDS011;6495;51.808;7.478;2023-04-04T04:57:13;1.63;;;1.30;;
12852;SDS011;6495;51.808;7.478;2023-04-04T05:00:03;1.63;;;1.20;;
12852;SDS011;6495;51.808;7.478;2023-04-04T05:02:55;2.17;;;1.60;;
12852;SDS011;6495;51.808;7.478;2023-04-04T05:05:59;1.43;;;1.30;;
12852;SDS011;6495;51.808;7.478;2023-04-04T05:08:49;2.13;;;1.60;;
12852;SDS011;6495;51.808;7.478;2023-04-04T05:11:53;4.77;;;1.90;;
12852;SDS011;6495;51.808;7.478;2023-04-04T05:18:36;9.77;;;1.70;;
12852;SDS011;6495;51.808;7.478;2023-04-04T05:21:28;5.10;;;1.97;;
12852;SDS011;6495;51.808;7.478;2023-04-04T05:24:20;2.10;;;1.60;;
12852;SDS011;6495;51.808;7.478;2023-04-04T05:27:09;8.73;;;1.93;;
12852;SDS011;6495;51.808;7.478;2023-04-04T05:30:03;1.97;;;1.60;;
12852;SDS011;6495;51.808;7.478;2023-04-04T05:33:06;2.90;;;2.00;;
12852;SDS011;6495;51.808;7.478;2023-04-04T05:35:58;4.10;;;2.13;;
12852;SDS011;6495;51.808;7.478;2023-04-04T05:38:49;2.20;;;1.70;;
12852;SDS011;6495;51.808;7.478;2023-04-04T05:41:41;4.63;;;2.30;;
12852;SDS011;6495;51.808;7.478;2023-04-04T05:44:34;2.80;;;2.00;;
12852;SDS011;6495;51.808;7.478;2023-04-04T05:47:24;1.87;;;1.57;;
12852;SDS011;6495;51.808;7.478;2023-04-04T05:50:13;1.57;;;1.47;;
12852;SDS011;6495;51.808;7.478;2023-04-04T05:53:02;3.43;;;1.80;;
12852;SDS011;6495;51.808;7.478;2023-04-04T05:55:51;7.97;;;1.73;;
12852;SDS011;6495;51.808;7.478;2023-04-04T05:58:48;2.67;;;1.50;;
12852;SDS011;6495;51.808;7.478;2023-04-04T06:01:37;2.90;;;1.63;;
12852;SDS011;6495;51.808;7.478;2023-04-04T06:04:31;3.77;;;1.93;;
12852;SDS011;6495;51.808;7.478;2023-04-04T06:07:21;3.27;;;1.90;;
12852;SDS011;6495;51.808;7.478;2023-04-04T06:10:10;3.50;;;2.10;;
12852;SDS011;6495;51.808;7.478;2023-04-04T06:12:59;2.83;;;1.73;;
12852;SDS011;6495;51.808;7.478;2023-04-04T06:15:50;5.20;;;2.10;;
12852;SDS011;6495;51.808;7.478;2023-04-04T06:18:39;5.70;;;2.20;;
12852;SDS011;6495;51.808;7.478;2023-04-04T06:21:28;7.10;;;2.13;;
12852;SDS011;6495;51.808;7.478;2023-04-04T06:24:17;3.43;;;2.13;;
12852;SDS011;6495;51.808;7.478;2023-04-04T06:27:06;5.13;;;1.80;;
12852;SDS011;6495;51.808;7.478;2023-04-04T06:29:55;2.97;;;2.00;;
12852;SDS011;6495;51.808;7.478;2023-04-04T06:32:45;7.00;;;2.67;;
12852;SDS011;6495;51.808;7.478;2023-04-04T06:35:37;2.93;;;2.03;;
12852;SDS011;6495;51.808;7.478;2023-04-04T06:38:27;3.20;;;1.90;;
12852;SDS011;6495;51.808;7.478;2023-04-04T06:41:18;3.87;;;2.37;;
12852;SDS011;6495;51.808;7.478;2023-04-04T06:44:09;6.90;;;2.53;;
12852;SDS011;6495;51.808;7.478;2023-04-04T06:46:57;3.67;;;2.07;;
12852;SDS011;6495;51.808;7.478;2023-04-04T06:49:47;3.97;;;2.10;;
12852;SDS011;6495;51.808;7.478;2023-04-04T06:52:36;3.27;;;2.17;;
12852;SDS011;6495;51.808;7.478;2023-04-04T06:55:25;2.50;;;2.03;;
12852;SDS011;6495;51.808;7.478;2023-04-04T06:58:14;6.83;;;2.60;;
12852;SDS011;6495;51.808;7.478;2023-04-04T07:01:05;4.07;;;2.77;;
12852;SDS011;6495;51.808;7.478;2023-04-04T07:03:53;2.77;;;2.23;;
12852;SDS011;6495;51.808;7.478;2023-04-04T07:06:43;2.90;;;2.47;;
12852;SDS011;6495;51.808;7.478;2023-04-04T07:09:32;3.53;;;2.57;;
12852;SDS011;6495;51.808;7.478;2023-04-04T07:12:20;6.40;;;2.57;;
12852;SDS011;6495;51.808;7.478;2023-04-04T07:15:09;4.13;;;2.40;;
12852;SDS011;6495;51.808;7.478;2023-04-04T07:17:58;3.83;;;2.03;;
12852;SDS011;6495;51.808;7.478;2023-04-04T07:20:47;2.37;;;2.17;;
12852;SDS011;6495;51.808;7.478;2023-04-04T07:23:39;3.37;;;2.23;;
12852;SDS011;6495;51.808;7.478;2023-04-04T07:26:28;4.70;;;2.50;;
12852;SDS011;6495;51.808;7.478;2023-04-04T07:29:16;3.07;;;2.07;;
12852;SDS011;6495;51.808;7.478;2023-04-04T07:32:06;2.73;;;1.70;;
12852;SDS011;6495;51.808;7.478;2023-04-04T07:34:55;5.83;;;2.40;;
12852;SDS011;6495;51.808;7.478;2023-04-04T07:37:44;4.40;;;2.37;;
12852;SDS011;6495;51.808;7.478;2023-04-04T07:40:34;2.67;;;1.97;;
12852;SDS011;6495;51.808;7.478;2023-04-04T07:43:23;3.03;;;1.97;;
12852;SDS011;6495;51.808;7.478;2023-04-04T07:46:19;2.77;;;2.33;;
12852;SDS011;6495;51.808;7.478;2023-04-04T07:49:08;5.80;;;2.30;;
12852;SDS011;6495;51.808;7.478;2023-04-04T07:51:56;3.60;;;2.27;;
12852;SDS011;6495;51.808;7.478;2023-04-04T07:54:45;8.60;;;2.33;;
12852;SDS011;6495;51.808;7.478;2023-04-04T07:57:37;4.03;;;2.17;;
12852;SDS011;6495;51.808;7.478;2023-04-04T08:00:26;3.87;;;2.07;;
12852;SDS011;6495;51.808;7.478;2023-04-04T08:03:14;4.43;;;2.13;;
12852;SDS011;6495;51.808;7.478;2023-04-04T08:06:05;2.33;;;1.80;;
12852;SDS011;6495;51.808;7.478;2023-04-04T08:08:54;2.30;;;1.90;;
12852;SDS011;6495;51.808;7.478;2023-04-04T08:11:43;2.80;;;2.20;;
12852;SDS011;6495;51.808;7.478;2023-04-04T08:14:33;3.33;;;2.07;;
12852;SDS011;6495;51.808;7.478;2023-04-04T08:17:22;3.13;;;1.93;;
12852;SDS011;6495;51.808;7.478;2023-04-04T08:20:11;2.20;;;2.00;;
12852;SDS011;6495;51.808;7.478;2023-04-04T08:23:01;4.07;;;2.13;;
12852;SDS011;6495;51.808;7.478;2023-04-04T08:25:49;5.53;;;2.23;;
12852;SDS011;6495;51.808;7.478;2023-04-04T08:28:39;2.60;;;1.90;;
12852;SDS011;6495;51.808;7.478;2023-04-04T08:31:29;4.93;;;1.97;;
12852;SDS011;6495;51.808;7.478;2023-04-04T08:34:18;6.60;;;1.90;;
12852;SDS011;6495;51.808;7.478;2023-04-04T08:37:09;1.93;;;1.77;;
12852;SDS011;6495;51.808;7.478;2023-04-04T08:39:57;3.60;;;1.60;;
12852;SDS011;6495;51.808;7.478;2023-04-04T08:42:46;1.97;;;1.50;;
12852;SDS011;6495;51.808;7.478;2023-04-04T08:45:37;4.63;;;1.70;;
12852;SDS011;6495;51.808;7.478;2023-04-04T08:48:30;3.90;;;1.87;;
12852;SDS011;6495;51.808;7.478;2023-04-04T08:51:24;2.23;;;1.50;;
12852;SDS011;6495;51.808;7.478;2023-04-04T08:54:15;3.87;;;1.70;;
12852;SDS011;6495;51.808;7.478;2023-04-04T08:57:06;2.23;;;1.50;;
12852;SDS011;6495;51.808;7.478;2023-04-04T08:59:55;3.53;;;1.43;;
12852;SDS011;6495;51.808;7.478;2023-04-04T09:02:45;2.57;;;1.43;;
12852;SDS011;6495;51.808;7.478;2023-04-04T09:05:45;3.03;;;1.47;;
12852;SDS011;6495;51.808;7.478;2023-04-04T09:08:34;3.07;;;1.70;;
12852;SDS011;6495;51.808;7.478;2023-04-04T09:11:23;2.17;;;1.50;;
12852;SDS011;6495;51.808;7.478;2023-04-04T09:14:14;3.67;;;1.43;;
12852;SDS011;6495;51.808;7.478;2023-04-04T09:17:03;1.97;;;1.20;;
12852;SDS011;6495;51.808;7.478;2023-04-04T09:19:54;3.27;;;1.70;;
12852;SDS011;6495;51.808;7.478;2023-04-04T09:22:44;2.40;;;1.33;;
12852;SDS011;6495;51.808;7.478;2023-04-04T09:25:34;3.63;;;1.30;;
12852;SDS011;6495;51.808;7.478;2023-04-04T09:28:30;1.50;;;1.20;;
12852;SDS011;6495;51.808;7.478;2023-04-04T09:32:34;2.10;;;1.20;;
12852;SDS011;6495;51.808;7.478;2023-04-04T09:35:23;2.30;;;1.27;;
12852;SDS011;6495;51.808;7.478;2023-04-04T09:38:29;2.57;;;1.50;;
12852;SDS011;6495;51.808;7.478;2023-04-04T09:41:18;2.33;;;1.70;;
12852;SDS011;6495;51.808;7.478;2023-04-04T09:44:09;2.10;;;1.30;;
12852;SDS011;6495;51.808;7.478;2023-04-04T09:47:06;2.53;;;1.40;;
12852;SDS011;6495;51.808;7.478;2023-04-04T09:50:15;1.40;;;1.20;;
12852;SDS011;6495;51.808;7.478;2023-04-04T09:53:12;2.63;;;1.50;;
12852;SDS011;6495;51.808;7.478;2023-04-04T09:56:06;3.30;;;1.40;;
12852;SDS011;6495;51.808;7.478;2023-04-04T09:58:55;2.65;;;1.40;;
12852;SDS011;6495;51.808;7.478;2023-04-04T10:01:50;6.60;;;1.60;;
12852;SDS011;6495;51.808;7.478;2023-04-04T10:07:57;2.10;;;1.53;;
12852;SDS011;6495;51.808;7.478;2023-04-04T10:10:47;3.73;;;1.50;;
12852;SDS011;6495;51.808;7.478;2023-04-04T10:13:54;2.20;;;1.70;;
12852;SDS011;6495;51.808;7.478;2023-04-04T10:16:45;3.03;;;1.67;;
12852;SDS011;6495;51.808;7.478;2023-04-04T10:19:35;2.43;;;1.37;;
12852;SDS011;6495;51.808;7.478;2023-04-04T10:22:31;2.83;;;1.50;;
12852;SDS011;6495;51.808;7.478;2023-04-04T10:25:21;3.63;;;1.47;;
12852;SDS011;6495;51.808;7.478;2023-04-04T10:28:39;1.63;;;1.30;;
12852;SDS011;6495;51.808;7.478;2023-04-04T10:31:33;4.47;;;1.73;;
12852;SDS011;6495;51.808;7.478;2023-04-04T10:34:30;6.55;;;1.65;;
12852;SDS011;6495;51.808;7.478;2023-04-04T10:37:26;3.35;;;1.90;;
12852;SDS011;6495;51.808;7.478;2023-04-04T10:40:19;1.60;;;1.40;;
12852;SDS011;6495;51.808;7.478;2023-04-04T10:44:28;3.50;;;1.70;;
12852;SDS011;6495;51.808;7.478;2023-04-04T10:47:31;1.80;;;1.40;;
12852;SDS011;6495;51.808;7.478;2023-04-04T10:50:21;4.53;;;1.23;;
12852;SDS011;6495;51.808;7.478;2023-04-04T10:53:13;1.98;;;1.52;;
12852;SDS011;6495;51.808;7.478;2023-04-04T10:56:02;3.75;;;1.20;;
12852;SDS011;6495;51.808;7.478;2023-04-04T10:59:00;2.90;;;1.45;;
12852;SDS011;6495;51.808;7.478;2023-04-04T11:02:00;2.10;;;1.63;;
12852;SDS011;6495;51.808;7.478;2023-04-04T11:04:54;2.20;;;1.42;;
12852;SDS011;6495;51.808;7.478;2023-04-04T11:08:00;2.00;;;1.67;;
12852;SDS011;6495;51.808;7.478;2023-04-04T11:10:55;2.58;;;1.58;;
12852;SDS011;6495;51.808;7.478;2023-04-04T11:13:58;5.00;;;1.67;;
12852;SDS011;6495;51.808;7.478;2023-04-04T11:16:47;3.15;;;1.90;;
12852;SDS011;6495;51.808;7.478;2023-04-04T11:19:40;3.10;;;1.85;;
12852;SDS011;6495;51.808;7.478;2023-04-04T11:22:48;1.75;;;1.52;;
12852;SDS011;6495;51.808;7.478;2023-04-04T11:25:39;2.75;;;1.90;;
12852;SDS011;6495;51.808;7.478;2023-04-04T11:28:42;3.28;;;1.60;;
12852;SDS011;6495;51.808;7.478;2023-04-04T11:31:33;2.40;;;1.58;;
12852;SDS011;6495;51.808;7.478;2023-04-04T11:34:30;3.40;;;2.03;;
12852;SDS011;6495;51.808;7.478;2023-04-04T11:37:21;4.55;;;2.13;;
12852;SDS011;6495;51.808;7.478;2023-04-04T11:40:17;3.05;;;1.77;;
12852;SDS011;6495;51.808;7.478;2023-04-04T11:43:16;2.90;;;1.70;;
12852;SDS011;6495;51.808;7.478;2023-04-04T11:46:16;2.55;;;1.65;;
12852;SDS011;6495;51.808;7.478;2023-04-04T11:49:45;3.83;;;1.80;;
12852;SDS011;6495;51.808;7.478;2023-04-04T11:52:54;4.82;;;1.95;;
12852;SDS011;6495;51.808;7.478;2023-04-04T11:55:52;1.95;;;1.67;;
12852;SDS011;6495;51.808;7.478;2023-04-04T11:59:40;4.38;;;1.73;;
12852;SDS011;6495;51.808;7.478;2023-04-04T12:02:43;3.15;;;1.70;;
12852;SDS011;6495;51.808;7.478;2023-04-04T12:05:51;2.40;;;1.58;;
12852;SDS011;6495;51.808;7.478;2023-04-04T12:09:08;4.07;;;1.70;;
12852;SDS011;6495;51.808;7.478;2023-04-04T12:12:18;1.92;;;1.60;;
12852;SDS011;6495;51.808;7.478;2023-04-04T12:15:22;2.70;;;1.60;;
12852;SDS011;6495;51.808;7.478;2023-04-04T12:18:22;4.15;;;1.70;;
12852;SDS011;6495;51.808;7.478;2023-04-04T12:21:17;2.60;;;1.80;;
12852;SDS011;6495;51.808;7.478;2023-04-04T12:24:19;3.45;;;1.73;;
12852;SDS011;6495;51.808;7.478;2023-04-04T12:27:16;2.05;;;1.50;;
12852;SDS011;6495;51.808;7.478;2023-04-04T12:30:19;3.65;;;1.65;;
12852;SDS011;6495;51.808;7.478;2023-04-04T12:33:23;2.63;;;1.77;;
12852;SDS011;6495;51.808;7.478;2023-04-04T12:36:45;4.03;;;1.98;;
12852;SDS011;6495;51.808;7.478;2023-04-04T12:40:13;3.42;;;1.75;;
12852;SDS011;6495;51.808;7.478;2023-04-04T12:43:30;5.13;;;1.88;;
12852;SDS011;6495;51.808;7.478;2023-04-04T12:47:09;3.15;;;1.63;;
12852;SDS011;6495;51.808;7.478;2023-04-04T12:50:57;1.80;;;1.40;;
12852;SDS011;6495;51.808;7.478;2023-04-04T12:54:25;3.53;;;2.05;;
12852;SDS011;6495;51.808;7.478;2023-04-04T12:58:01;2.42;;;1.63;;
12852;SDS011;6495;51.808;7.478;2023-04-04T13:01:01;3.72;;;2.05;;
12852;SDS011;6495;51.808;7.478;2023-04-04T13:03:56;3.13;;;1.90;;
12852;SDS011;6495;51.808;7.478;2023-04-04T13:06:55;2.67;;;1.60;;
12852;SDS011;6495;51.808;7.478;2023-04-04T13:09:50;2.33;;;1.75;;
12852;SDS011;6495;51.808;7.478;2023-04-04T13:12:54;2.75;;;1.50;;
12852;SDS011;6495;51.808;7.478;2023-04-04T13:16:00;1.95;;;1.63;;
12852;SDS011;6495;51.808;7.478;2023-04-04T13:19:05;3.05;;;1.60;;
12852;SDS011;6495;51.808;7.478;2023-04-04T13:22:00;3.08;;;1.70;;
12852;SDS011;6495;51.808;7.478;2023-04-04T13:25:37;1.80;;;1.50;;
12852;SDS011;6495;51.808;7.478;2023-04-04T14:07:22;2.75;;;1.85;;
12852;SDS011;6495;51.808;7.478;2023-04-04T14:10:23;3.45;;;1.67;;
12852;SDS011;6495;51.808;7.478;2023-04-04T14:13:15;2.40;;;1.70;;
12852;SDS011;6495;51.808;7.478;2023-04-04T14:16:11;5.45;;;2.38;;
12852;SDS011;6495;51.808;7.478;2023-04-04T14:19:05;4.63;;;2.05;;
12852;SDS011;6495;51.808;7.478;2023-04-04T14:22:30;5.45;;;1.95;;
12852;SDS011;6495;51.808;7.478;2023-04-04T14:25:22;4.30;;;2.28;;
12852;SDS011;6495;51.808;7.478;2023-04-04T14:28:31;8.07;;;2.30;;
12852;SDS011;6495;51.808;7.478;2023-04-04T14:31:27;3.20;;;2.03;;
12852;SDS011;6495;51.808;7.478;2023-04-04T14:34:21;3.00;;;1.83;;
12852;SDS011;6495;51.808;7.478;2023-04-04T14:37:16;4.95;;;2.10;;
12852;SDS011;6495;51.808;7.478;2023-04-04T14:40:13;5.20;;;1.75;;
12852;SDS011;6495;51.808;7.478;2023-04-04T14:50:35;2.20;;;1.98;;
12852;SDS011;6495;51.808;7.478;2023-04-04T14:53:25;3.67;;;1.98;;
12852;SDS011;6495;51.808;7.478;2023-04-04T14:56:15;4.30;;;2.20;;
12852;SDS011;6495;51.808;7.478;2023-04-04T14:59:06;2.75;;;2.10;;
12852;SDS011;6495;51.808;7.478;2023-04-04T15:01:55;3.45;;;2.20;;
12852;SDS011;6495;51.808;7.478;2023-04-04T15:04:44;3.88;;;1.98;;
12852;SDS011;6495;51.808;7.478;2023-04-04T15:07:33;2.65;;;1.90;;
12852;SDS011;6495;51.808;7.478;2023-04-04T15:10:21;3.42;;;2.15;;
12852;SDS011;6495;51.808;7.478;2023-04-04T15:13:11;3.22;;;1.65;;
12852;SDS011;6495;51.808;7.478;2023-04-04T15:16:00;3.20;;;2.13;;
12852;SDS011;6495;51.808;7.478;2023-04-04T15:18:49;2.83;;;2.08;;
12852;SDS011;6495;51.808;7.478;2023-04-04T15:21:38;3.97;;;2.33;;
12852;SDS011;6495;51.808;7.478;2023-04-04T15:24:27;3.65;;;2.00;;
12852;SDS011;6495;51.808;7.478;2023-04-04T15:27:15;2.22;;;1.98;;
12852;SDS011;6495;51.808;7.478;2023-04-04T15:30:07;3.20;;;2.17;;
12852;SDS011;6495;51.808;7.478;2023-04-04T15:32:56;2.80;;;2.00;;
12852;SDS011;6495;51.808;7.478;2023-04-04T15:35:45;5.07;;;2.25;;
12852;SDS011;6495;51.808;7.478;2023-04-04T15:38:33;3.60;;;2.25;;
12852;SDS011;6495;51.808;7.478;2023-04-04T15:41:22;3.53;;;2.28;;
12852;SDS011;6495;51.808;7.478;2023-04-04T15:44:10;3.10;;;2.15;;
12852;SDS011;6495;51.808;7.478;2023-04-04T15:47:00;4.93;;;2.40;;
12852;SDS011;6495;51.808;7.478;2023-04-04T15:49:49;3.03;;;2.13;;
12852;SDS011;6495;51.808;7.478;2023-04-04T15:52:37;6.32;;;2.38;;
12852;SDS011;6495;51.808;7.478;2023-04-04T15:55:26;3.08;;;2.13;;
12852;SDS011;6495;51.808;7.478;2023-04-04T15:58:14;3.00;;;2.20;;
12852;SDS011;6495;51.808;7.478;2023-04-04T16:01:03;2.70;;;1.83;;
12852;SDS011;6495;51.808;7.478;2023-04-04T16:03:54;3.47;;;2.20;;
12852;SDS011;6495;51.808;7.478;2023-04-04T16:06:43;2.67;;;2.10;;
12852;SDS011;6495;51.808;7.478;2023-04-04T16:09:32;3.08;;;2.00;;
12852;SDS011;6495;51.808;7.478;2023-04-04T16:12:20;5.53;;;2.60;;
12852;SDS011;6495;51.808;7.478;2023-04-04T16:15:09;4.70;;;2.15;;
12852;SDS011;6495;51.808;7.478;2023-04-04T16:17:58;5.03;;;2.30;;
12852;SDS011;6495;51.808;7.478;2023-04-04T16:20:50;4.32;;;2.10;;
12852;SDS011;6495;51.808;7.478;2023-04-04T16:23:38;4.20;;;2.30;;
12852;SDS011;6495;51.808;7.478;2023-04-04T16:26:31;3.58;;;2.10;;
12852;SDS011;6495;51.808;7.478;2023-04-04T16:29:20;3.20;;;2.60;;
12852;SDS011;6495;51.808;7.478;2023-04-04T16:32:08;2.78;;;2.22;;
12852;SDS011;6495;51.808;7.478;2023-04-04T16:34:57;3.20;;;2.65;;
12852;SDS011;6495;51.808;7.478;2023-04-04T16:37:47;5.00;;;2.65;;
12852;SDS011;6495;51.808;7.478;2023-04-04T16:40:35;2.33;;;1.88;;
12852;SDS011;6495;51.808;7.478;2023-04-04T16:43:26;9.27;;;3.80;;
12852;SDS011;6495;51.808;7.478;2023-04-04T16:46:14;3.92;;;2.53;;
12852;SDS011;6495;51.808;7.478;2023-04-04T16:49:03;6.65;;;2.58;;
12852;SDS011;6495;51.808;7.478;2023-04-04T16:52:04;2.60;;;2.05;;
12852;SDS011;6495;51.808;7.478;2023-04-04T16:55:02;3.92;;;2.28;;
12852;SDS011;6495;51.808;7.478;2023-04-04T16:57:52;3.03;;;2.50;;
12852;SDS011;6495;51.808;7.478;2023-04-04T17:00:41;3.92;;;2.78;;
12852;SDS011;6495;51.808;7.478;2023-04-04T17:03:30;5.13;;;2.58;;
12852;SDS011;6495;51.808;7.478;2023-04-04T17:06:21;2.90;;;2.28;;
12852;SDS011;6495;51.808;7.478;2023-04-04T17:09:10;3.50;;;2.20;;
12852;SDS011;6495;51.808;7.478;2023-04-04T17:12:00;3.42;;;2.13;;
12852;SDS011;6495;51.808;7.478;2023-04-04T17:14:49;6.25;;;2.25;;
12852;SDS011;6495;51.808;7.478;2023-04-04T17:17:38;4.97;;;2.50;;
12852;SDS011;6495;51.808;7.478;2023-04-04T17:20:27;7.85;;;2.78;;
12852;SDS011;6495;51.808;7.478;2023-04-04T17:23:19;3.35;;;2.40;;
12852;SDS011;6495;51.808;7.478;2023-04-04T17:26:08;3.45;;;2.00;;
12852;SDS011;6495;51.808;7.478;2023-04-04T17:28:58;3.05;;;2.20;;
12852;SDS011;6495;51.808;7.478;2023-04-04T17:31:47;5.53;;;2.30;;
12852;SDS011;6495;51.808;7.478;2023-04-04T17:34:35;5.05;;;2.78;;
12852;SDS011;6495;51.808;7.478;2023-04-04T17:37:24;3.75;;;2.47;;
12852;SDS011;6495;51.808;7.478;2023-04-04T17:40:14;4.57;;;2.22;;
12852;SDS011;6495;51.808;7.478;2023-04-04T17:43:09;5.47;;;2.53;;
12852;SDS011;6495;51.808;7.478;2023-04-04T17:46:02;4.55;;;2.45;;
12852;SDS011;6495;51.808;7.478;2023-04-04T17:48:52;4.95;;;2.75;;
12852;SDS011;6495;51.808;7.478;2023-04-04T17:51:41;4.95;;;2.22;;
12852;SDS011;6495;51.808;7.478;2023-04-04T17:54:29;4.78;;;2.17;;
12852;SDS011;6495;51.808;7.478;2023-04-04T17:57:18;3.47;;;2.50;;
12852;SDS011;6495;51.808;7.478;2023-04-04T18:00:10;3.47;;;2.33;;
12852;SDS011;6495;51.808;7.478;2023-04-04T18:03:24;3.38;;;2.38;;
12852;SDS011;6495;51.808;7.478;2023-04-04T18:06:13;5.55;;;2.42;;
12852;SDS011;6495;51.808;7.478;2023-04-04T18:09:02;3.90;;;2.40;;
12852;SDS011;6495;51.808;7.478;2023-04-04T18:11:51;4.60;;;2.47;;
12852;SDS011;6495;51.808;7.478;2023-04-04T18:14:40;4.72;;;2.58;;
12852;SDS011;6495;51.808;7.478;2023-04-04T18:17:29;3.53;;;2.67;;
12852;SDS011;6495;51.808;7.478;2023-04-04T18:20:20;2.25;;;1.83;;
12852;SDS011;6495;51.808;7.478;2023-04-04T18:23:28;3.03;;;1.80;;
12852;SDS011;6495;51.808;7.478;2023-04-04T18:26:17;3.72;;;2.35;;
12852;SDS011;6495;51.808;7.478;2023-04-04T18:29:05;5.03;;;2.30;;
12852;SDS011;6495;51.808;7.478;2023-04-04T18:31:54;4.55;;;2.42;;
12852;SDS011;6495;51.808;7.478;2023-04-04T18:34:46;5.18;;;2.35;;